Time;durP1;ratioP1;P1;durP2;ratioP2;P2;SDS_P1;SDS_P2;PMS_P1;PMS_P2;Temp;Humidity;BMP_temperature;BMP_pressure;BME280_temperature;BME280_humidity;BME280_pressure;Samples;Min_cycle;Max_cycle;Signal;HPM_P1;HPM_P2
2021/12/29 00:00:21;;;;;;;13.10;7.68;;;4.90;99.90;;;;;;5126980;27;20019;-72
2021/12/29 00:02:48;;;;;;;10.40;6.45;;;4.90;99.90;;;;;;5129637;27;20070;-72
2021/12/29 00:05:14;;;;;;;11.30;6.53;;;5.00;99.90;;;;;;5131414;27;20027;-73
2021/12/29 00:07:40;;;;;;;11.85;7.75;;;4.90;99.90;;;;;;5131693;27;20125;-73
2021/12/29 00:10:07;;;;;;;11.23;6.82;;;4.70;99.90;;;;;;5132166;27;20488;-72
2021/12/29 00:12:39;;;;;;;12.15;7.38;;;4.80;99.90;;;;;;5131743;27;20102;-74
2021/12/29 00:15:06;;;;;;;11.10;6.43;;;4.80;99.90;;;;;;5132100;27;20024;-73
2021/12/29 00:17:32;;;;;;;14.20;7.32;;;4.70;99.90;;;;;;5131305;27;20034;-73
2021/12/29 00:19:58;;;;;;;10.93;6.30;;;4.60;99.90;;;;;;5132122;28;20027;-75
2021/12/29 00:22:23;;;;;;;10.35;6.40;;;4.50;99.90;;;;;;5131942;28;20041;-73
2021/12/29 00:24:49;;;;;;;10.30;7.07;;;4.50;99.90;;;;;;5131482;28;20027;-72
2021/12/29 00:27:15;;;;;;;11.43;7.47;;;4.50;99.90;;;;;;5131684;28;20023;-72
2021/12/29 00:29:40;;;;;;;13.18;7.03;;;4.40;99.90;;;;;;5131912;28;20034;-73
2021/12/29 00:32:06;;;;;;;13.02;7.78;;;4.40;99.90;;;;;;5131706;28;20027;-73
2021/12/29 00:34:32;;;;;;;11.63;6.93;;;4.40;99.90;;;;;;5131744;27;20027;-73
2021/12/29 00:36:58;;;;;;;10.90;7.57;;;4.40;99.90;;;;;;5131187;28;20023;-73
2021/12/29 00:39:24;;;;;;;16.20;7.75;;;4.50;99.90;;;;;;5130801;28;20023;-74
2021/12/29 00:41:49;;;;;;;13.35;7.40;;;4.50;99.90;;;;;;5131669;28;20023;-73
2021/12/29 00:44:15;;;;;;;15.77;8.95;;;4.50;99.90;;;;;;5131752;28;20027;-73
2021/12/29 00:46:41;;;;;;;11.40;6.50;;;4.30;99.90;;;;;;5130806;28;20015;-73
2021/12/29 00:49:08;;;;;;;12.52;7.82;;;4.20;99.90;;;;;;5131945;27;20024;-73
2021/12/29 00:51:34;;;;;;;11.60;6.45;;;4.30;99.90;;;;;;5131645;27;20024;-73
2021/12/29 00:54:00;;;;;;;10.52;6.40;;;4.30;99.90;;;;;;5131684;28;20035;-73
2021/12/29 00:56:26;;;;;;;11.00;6.22;;;4.20;99.90;;;;;;5131007;28;20026;-73
2021/12/29 00:58:52;;;;;;;10.07;6.20;;;4.20;99.90;;;;;;5131227;28;20164;-73
2021/12/29 01:01:18;;;;;;;10.10;6.53;;;4.10;99.90;;;;;;5131670;27;20473;-73
2021/12/29 01:03:44;;;;;;;12.35;7.78;;;4.10;99.90;;;;;;5131207;28;20046;-73
2021/12/29 01:06:10;;;;;;;8.52;6.00;;;4.20;99.90;;;;;;5131111;27;20026;-73
2021/12/29 01:08:36;;;;;;;9.02;6.05;;;4.10;99.90;;;;;;5131134;28;20062;-73
2021/12/29 01:11:03;;;;;;;8.77;6.28;;;4.00;99.90;;;;;;5131068;28;20047;-73
2021/12/29 01:13:31;;;;;;;9.18;5.72;;;3.90;99.90;;;;;;5131648;27;20027;-73
2021/12/29 01:18:34;;;;;;;11.10;6.50;;;4.00;99.90;;;;;;5113667;28;20392;-73
2021/12/29 01:21:00;;;;;;;10.25;6.88;;;4.10;99.90;;;;;;5120159;27;20023;-73
2021/12/29 01:23:26;;;;;;;11.68;6.43;;;4.00;99.90;;;;;;5134905;27;20103;-73
2021/12/29 01:25:52;;;;;;;9.77;6.47;;;3.80;99.90;;;;;;5135420;27;20040;-73
2021/12/29 01:28:18;;;;;;;13.38;7.18;;;3.50;99.90;;;;;;5134881;27;20034;-73
2021/12/29 01:30:44;;;;;;;10.90;6.45;;;3.80;99.90;;;;;;5134825;27;20035;-73
2021/12/29 01:33:10;;;;;;;11.10;7.28;;;4.10;99.90;;;;;;5134843;27;20027;-73
2021/12/29 01:35:38;;;;;;;11.63;6.03;;;4.10;99.90;;;;;;5135024;27;20023;-73
2021/12/29 01:38:05;;;;;;;10.50;6.75;;;4.10;99.90;;;;;;5134636;27;20071;-73
2021/12/29 01:40:31;;;;;;;11.15;6.97;;;4.10;99.90;;;;;;5134468;27;20038;-73
2021/12/29 01:42:57;;;;;;;12.82;7.22;;;4.00;99.90;;;;;;5134717;27;20041;-73
2021/12/29 01:45:24;;;;;;;9.77;6.38;;;4.10;99.90;;;;;;5134682;27;20028;-73
2021/12/29 01:47:50;;;;;;;10.10;6.57;;;4.00;99.90;;;;;;5134776;27;20030;-73
2021/12/29 01:50:16;;;;;;;10.00;5.60;;;4.00;99.90;;;;;;5134001;27;20031;-73
2021/12/29 01:52:42;;;;;;;11.10;7.30;;;4.00;99.90;;;;;;5133372;27;20062;-74
2021/12/29 01:55:14;;;;;;;13.88;7.75;;;4.00;99.90;;;;;;5133974;27;20110;-73
2021/12/29 01:57:40;;;;;;;10.52;6.38;;;4.00;99.90;;;;;;5115111;27;20426;-72
2021/12/29 02:00:14;;;;;;;12.23;7.10;;;4.20;99.90;;;;;;5134630;27;20497;-72
2021/12/29 02:02:40;;;;;;;13.45;8.07;;;4.00;99.90;;;;;;5134437;27;20053;-72
2021/12/29 02:05:07;;;;;;;12.07;7.65;;;4.10;99.90;;;;;;5134530;27;20019;-72
2021/12/29 02:07:33;;;;;;;9.80;6.32;;;4.10;99.90;;;;;;5134503;27;20370;-72
2021/12/29 02:09:59;;;;;;;15.27;8.00;;;4.00;99.90;;;;;;5133912;27;20092;-71
2021/12/29 02:12:25;;;;;;;15.43;7.32;;;4.10;99.90;;;;;;5134320;27;20474;-72
2021/12/29 02:14:51;;;;;;;10.55;6.72;;;4.10;99.90;;;;;;5134487;27;20107;-72
2021/12/29 02:17:16;;;;;;;14.05;7.65;;;4.10;99.90;;;;;;5134486;27;20050;-72
2021/12/29 02:19:45;;;;;;;12.70;7.88;;;4.10;99.90;;;;;;5133869;27;20106;-72
2021/12/29 02:22:31;;;;;;;14.80;7.50;;;4.10;99.90;;;;;;5134223;27;20020;-71
2021/12/29 02:25:18;;;;;;;10.90;6.47;;;3.90;99.90;;;;;;5134199;27;20023;-72
2021/12/29 02:27:44;;;;;;;11.20;7.05;;;3.80;99.90;;;;;;5133371;27;20034;-72
2021/12/29 02:30:11;;;;;;;12.07;6.97;;;3.90;99.90;;;;;;5113746;27;20055;-72
2021/12/29 02:32:37;;;;;;;11.10;6.70;;;4.00;99.90;;;;;;5133448;27;20447;-73
2021/12/29 02:35:04;;;;;;;11.27;6.97;;;4.00;99.90;;;;;;5134303;27;20054;-72
2021/12/29 02:37:30;;;;;;;10.35;6.75;;;4.10;99.90;;;;;;5133370;27;20110;-72
2021/12/29 02:39:56;;;;;;;14.13;6.00;;;3.90;99.90;;;;;;5133491;27;20453;-71
2021/12/29 02:42:26;;;;;;;9.35;5.63;;;3.90;99.90;;;;;;5133281;27;20122;-72
2021/12/29 02:44:53;;;;;;;10.35;6.15;;;4.00;99.90;;;;;;5133756;27;20019;-73
2021/12/29 02:47:19;;;;;;;14.07;9.55;;;4.00;99.90;;;;;;5133599;27;20027;-72
2021/12/29 02:49:45;;;;;;;11.63;6.32;;;4.00;99.90;;;;;;5132943;27;20026;-73
2021/12/29 02:52:14;;;;;;;11.93;6.35;;;3.80;99.90;;;;;;5134139;27;20102;-72
2021/12/29 02:54:42;;;;;;;10.75;6.35;;;3.90;99.90;;;;;;5132636;27;20377;-72
2021/12/29 02:57:08;;;;;;;13.85;7.38;;;3.90;99.90;;;;;;5133452;27;20019;-72
2021/12/29 02:59:34;;;;;;;28.70;19.38;;;3.90;99.90;;;;;;5133027;27;20508;-72
2021/12/29 03:02:00;;;;;;;10.98;7.40;;;3.90;99.90;;;;;;5132370;27;20031;-72
2021/12/29 03:04:25;;;;;;;9.48;6.68;;;3.70;99.90;;;;;;5132901;27;20027;-72
2021/12/29 03:06:51;;;;;;;11.38;7.15;;;3.60;99.90;;;;;;5132005;27;20503;-72
2021/12/29 03:09:17;;;;;;;9.60;6.18;;;3.60;99.90;;;;;;5133179;27;20077;-72
2021/12/29 03:11:45;;;;;;;10.75;6.43;;;3.70;99.90;;;;;;5131985;27;20027;-72
2021/12/29 03:14:11;;;;;;;11.23;6.53;;;3.80;99.90;;;;;;5112643;28;20034;-73
2021/12/29 03:16:38;;;;;;;7.95;5.70;;;3.90;99.90;;;;;;5131402;27;20023;-72
2021/12/29 03:19:05;;;;;;;10.80;5.45;;;3.80;99.90;;;;;;5133096;27;20118;-72
2021/12/29 03:21:32;;;;;;;8.73;5.57;;;3.70;99.90;;;;;;5132537;27;20411;-72
2021/12/29 03:23:58;;;;;;;9.30;5.57;;;3.70;99.90;;;;;;5132715;27;20060;-72
2021/12/29 03:26:24;;;;;;;10.30;5.80;;;3.80;99.90;;;;;;5132731;27;20038;-72
2021/12/29 03:28:51;;;;;;;9.18;5.05;;;3.80;99.90;;;;;;5132581;27;20023;-72
2021/12/29 03:31:18;;;;;;;8.95;5.45;;;3.80;99.90;;;;;;5132060;27;20022;-72
2021/12/29 03:33:45;;;;;;;9.57;5.35;;;3.90;99.90;;;;;;5132586;27;20099;-72
2021/12/29 03:36:11;;;;;;;9.48;5.60;;;4.00;99.90;;;;;;5132705;27;20084;-72
2021/12/29 03:38:39;;;;;;;8.23;4.63;;;3.80;99.90;;;;;;5132341;27;20485;-72
2021/12/29 03:41:07;;;;;;;9.15;4.90;;;3.60;99.90;;;;;;5131870;27;20433;-72
2021/12/29 03:43:34;;;;;;;8.20;5.30;;;3.70;99.90;;;;;;5131643;27;20046;-72
2021/12/29 03:46:02;;;;;;;8.50;5.22;;;3.70;99.90;;;;;;5132868;27;20035;-72
2021/12/29 03:48:29;;;;;;;9.20;5.30;;;3.80;99.90;;;;;;5132168;27;20023;-72
2021/12/29 03:50:57;;;;;;;13.98;5.80;;;3.90;99.90;;;;;;5129341;27;20015;-72
2021/12/29 03:53:23;;;;;;;14.25;7.07;;;3.80;99.90;;;;;;5129309;27;20031;-72
2021/12/29 03:55:50;;;;;;;7.47;4.72;;;3.80;99.90;;;;;;5132222;27;20061;-72
2021/12/29 03:58:18;;;;;;;11.00;5.50;;;3.80;99.90;;;;;;5132238;27;20107;-72
2021/12/29 04:00:45;;;;;;;11.48;5.50;;;3.80;99.90;;;;;;5127733;27;20047;-73
2021/12/29 04:03:10;;;;;;;8.50;4.93;;;3.70;99.90;;;;;;5118624;27;20043;-74
2021/12/29 04:05:36;;;;;;;8.18;4.90;;;3.60;99.90;;;;;;5124901;27;20027;-73
2021/12/29 04:08:03;;;;;;;8.55;4.63;;;3.60;99.90;;;;;;5124307;27;20031;-73
2021/12/29 04:10:29;;;;;;;9.38;5.45;;;3.40;99.90;;;;;;5124060;27;20079;-74
2021/12/29 04:12:55;;;;;;;8.13;5.30;;;3.40;99.90;;;;;;5124246;27;20576;-73
2021/12/29 04:15:21;;;;;;;8.35;5.22;;;3.40;99.90;;;;;;5118830;27;20521;-73
2021/12/29 04:17:48;;;;;;;8.55;5.05;;;3.50;99.90;;;;;;5124053;27;20019;-73
2021/12/29 04:23:03;;;;;;;10.05;5.18;;;3.40;99.90;;;;;;5126514;28;20054;-74
2021/12/29 04:25:34;;;;;;;11.65;5.22;;;3.50;99.90;;;;;;5115927;27;20126;-73
2021/12/29 04:28:00;;;;;;;8.80;5.68;;;3.70;99.90;;;;;;5119917;28;20027;-73
2021/12/29 04:30:26;;;;;;;11.77;7.90;;;4.10;99.90;;;;;;5127691;28;20445;-73
2021/12/29 04:32:53;;;;;;;16.45;9.77;;;3.50;99.90;;;;;;5126817;28;20106;-74
2021/12/29 04:35:20;;;;;;;11.00;7.22;;;3.30;99.90;;;;;;5127341;28;20035;-73
2021/12/29 04:37:46;;;;;;;10.77;6.35;;;3.30;99.90;;;;;;5127409;28;20059;-73
2021/12/29 04:40:12;;;;;;;10.38;5.70;;;3.20;99.90;;;;;;5127843;28;20106;-73
2021/12/29 04:42:38;;;;;;;8.57;5.07;;;3.30;99.90;;;;;;5127439;28;20074;-73
2021/12/29 04:45:04;;;;;;;8.48;4.93;;;3.70;99.90;;;;;;5125529;28;20055;-73
2021/12/29 04:47:31;;;;;;;12.45;6.90;;;3.80;99.90;;;;;;5113205;28;20092;-73
2021/12/29 04:50:00;;;;;;;12.38;6.40;;;3.40;99.90;;;;;;5127360;28;20024;-73
2021/12/29 04:52:28;;;;;;;24.48;13.90;;;3.10;99.90;;;;;;5129726;27;20015;-73
2021/12/29 04:54:54;;;;;;;10.73;5.20;;;3.00;99.90;;;;;;5131178;27;20030;-73
2021/12/29 04:57:20;;;;;;;6.60;4.03;;;2.60;99.90;;;;;;5129843;27;20019;-73
2021/12/29 04:59:46;;;;;;;10.85;6.80;;;2.70;99.90;;;;;;5128054;27;20034;-73
2021/12/29 05:02:12;;;;;;;9.00;5.82;;;2.80;99.90;;;;;;5128150;27;20715;-74
2021/12/29 05:04:46;;;;;;;10.10;5.65;;;2.80;99.90;;;;;;5128482;27;20028;-73
2021/12/29 05:10:00;;;;;;;7.65;4.03;;;2.80;99.90;;;;;;5127802;27;20077;-73
2021/12/29 05:12:26;;;;;;;7.13;4.15;;;3.30;99.90;;;;;;5128218;27;20023;-73
2021/12/29 05:14:51;;;;;;;8.40;5.00;;;3.70;99.90;;;;;;5128007;27;20608;-73
2021/12/29 05:17:17;;;;;;;8.20;4.88;;;3.70;99.90;;;;;;5127433;27;20023;-73
2021/12/29 05:19:43;;;;;;;7.25;4.10;;;3.80;99.90;;;;;;5127887;27;20027;-73
2021/12/29 05:22:09;;;;;;;9.30;4.65;;;3.90;99.90;;;;;;5128075;27;20450;-73
2021/12/29 05:24:35;;;;;;;7.20;4.32;;;3.90;99.90;;;;;;5127652;27;20106;-73
2021/12/29 05:27:02;;;;;;;8.90;5.05;;;3.90;99.90;;;;;;5126997;27;20035;-73
2021/12/29 05:29:27;;;;;;;11.25;6.82;;;3.90;99.90;;;;;;5127181;27;20026;-73
2021/12/29 05:31:53;;;;;;;20.83;11.35;;;3.50;99.90;;;;;;5128018;27;20023;-73
2021/12/29 05:34:19;;;;;;;16.35;8.23;;;3.10;99.90;;;;;;5128186;27;20056;-73
2021/12/29 05:36:45;;;;;;;7.35;4.40;;;2.70;99.90;;;;;;5127972;27;20027;-73
2021/12/29 05:39:11;;;;;;;6.28;3.38;;;2.80;99.90;;;;;;5127617;27;20035;-73
2021/12/29 05:41:37;;;;;;;5.78;3.75;;;3.10;99.90;;;;;;5128601;27;20485;-73
2021/12/29 05:44:03;;;;;;;7.80;4.15;;;3.40;99.90;;;;;;5127978;27;20023;-74
2021/12/29 05:46:28;;;;;;;7.50;4.05;;;3.40;99.90;;;;;;5128582;27;20031;-73
2021/12/29 05:48:54;;;;;;;11.30;7.32;;;3.40;99.90;;;;;;5127390;27;20502;-73
2021/12/29 05:51:20;;;;;;;7.85;4.75;;;3.10;99.90;;;;;;5127808;27;20102;-73
2021/12/29 05:53:46;;;;;;;6.65;4.13;;;2.80;99.90;;;;;;5127147;27;20027;-73
2021/12/29 05:56:11;;;;;;;7.72;4.32;;;3.20;99.90;;;;;;5127663;27;20520;-73
2021/12/29 05:58:37;;;;;;;8.52;4.05;;;3.20;99.90;;;;;;5127603;27;20080;-73
2021/12/29 06:01:04;;;;;;;7.43;4.00;;;3.40;99.90;;;;;;5108505;27;20423;-73
2021/12/29 06:03:30;;;;;;;11.93;6.57;;;3.50;99.90;;;;;;5127036;27;20114;-73
2021/12/29 06:05:55;;;;;;;10.10;6.15;;;3.20;99.90;;;;;;5127241;27;20090;-73
2021/12/29 06:08:21;;;;;;;8.30;4.75;;;3.00;99.90;;;;;;5127224;27;20031;-74
2021/12/29 06:10:48;;;;;;;7.65;4.35;;;3.10;99.90;;;;;;5127171;27;20619;-73
2021/12/29 06:13:14;;;;;;;7.00;4.10;;;3.10;99.90;;;;;;5127960;27;20038;-74
2021/12/29 06:15:39;;;;;;;9.10;4.00;;;3.30;99.90;;;;;;5127152;27;20031;-73
2021/12/29 06:18:05;;;;;;;7.10;4.28;;;3.30;99.90;;;;;;5127494;27;20055;-73
2021/12/29 06:20:31;;;;;;;14.35;7.65;;;3.60;99.90;;;;;;5108746;27;20478;-73
2021/12/29 06:22:57;;;;;;;12.73;7.60;;;3.30;99.90;;;;;;5126376;27;20083;-73
2021/12/29 06:25:23;;;;;;;9.43;4.97;;;3.00;99.90;;;;;;5127138;27;20348;-73
2021/12/29 06:27:51;;;;;;;11.45;5.50;;;2.70;99.90;;;;;;5127256;27;20046;-73
2021/12/29 06:30:17;;;;;;;8.23;4.25;;;3.00;99.90;;;;;;5125986;27;20064;-73
2021/12/29 06:32:44;;;;;;;8.35;4.22;;;3.00;99.90;;;;;;5126246;27;20034;-73
2021/12/29 06:35:12;;;;;;;8.85;5.85;;;3.10;99.90;;;;;;5125973;27;20011;-73
2021/12/29 06:37:38;;;;;;;9.45;3.88;;;2.80;99.90;;;;;;5127209;27;20110;-73
2021/12/29 06:40:05;;;;;;;8.45;4.95;;;2.80;99.90;;;;;;5126615;27;20541;-73
2021/12/29 06:42:30;;;;;;;6.32;3.78;;;3.50;99.90;;;;;;5126874;27;20027;-73
2021/12/29 06:44:57;;;;;;;8.32;3.78;;;3.40;99.90;;;;;;5126508;27;20025;-73
2021/12/29 06:47:24;;;;;;;7.00;3.40;;;3.50;99.90;;;;;;5127246;27;20084;-73
2021/12/29 06:49:50;;;;;;;6.45;3.88;;;3.20;99.90;;;;;;5126014;27;20076;-73
2021/12/29 06:52:16;;;;;;;10.15;6.45;;;3.20;99.90;;;;;;5126516;27;20529;-73
2021/12/29 06:54:41;;;;;;;11.43;6.22;;;2.90;99.90;;;;;;5108635;27;20062;-73
2021/12/29 06:57:07;;;;;;;12.15;6.63;;;2.90;99.90;;;;;;5129793;27;20015;-73
2021/12/29 06:59:34;;;;;;;9.95;5.78;;;2.90;99.90;;;;;;5128321;27;20027;-73
2021/12/29 07:02:00;;;;;;;11.23;5.47;;;2.80;99.90;;;;;;5127106;27;20840;-73
2021/12/29 07:04:26;;;;;;;7.35;4.28;;;2.90;99.90;;;;;;5120598;27;20423;-73
2021/12/29 07:06:52;;;;;;;6.95;4.20;;;3.00;99.90;;;;;;5128931;27;20079;-73
2021/12/29 07:09:19;;;;;;;6.63;3.67;;;3.10;99.90;;;;;;5119243;27;20490;-73
2021/12/29 07:11:44;;;;;;;8.57;4.63;;;3.20;99.90;;;;;;5108534;28;20111;-73
2021/12/29 07:14:10;;;;;;;6.72;3.85;;;3.30;99.90;;;;;;5126534;27;20102;-73
2021/12/29 07:16:37;;;;;;;6.50;4.15;;;3.30;99.90;;;;;;5128713;27;20038;-73
2021/12/29 07:19:03;;;;;;;6.70;3.78;;;3.40;99.90;;;;;;5128800;27;20031;-73
2021/12/29 07:21:29;;;;;;;7.72;3.75;;;3.50;99.90;;;;;;5129142;27;20107;-73
2021/12/29 07:23:55;;;;;;;6.95;4.30;;;3.30;99.90;;;;;;5128520;27;20553;-73
2021/12/29 07:26:22;;;;;;;8.43;4.00;;;3.30;99.90;;;;;;5123986;27;20499;-73
2021/12/29 07:28:48;;;;;;;8.18;4.45;;;4.10;99.90;;;;;;5127824;27;20519;-73
2021/12/29 07:31:14;;;;;;;7.28;4.82;;;3.90;99.90;;;;;;5126026;27;20042;-73
2021/12/29 07:33:40;;;;;;;10.40;6.22;;;3.30;99.90;;;;;;5121076;27;20027;-73
2021/12/29 07:36:05;;;;;;;7.63;4.40;;;3.20;99.90;;;;;;5128981;27;20031;-73
2021/12/29 07:38:31;;;;;;;7.45;4.43;;;3.30;99.90;;;;;;5128796;27;20019;-73
2021/12/29 07:40:57;;;;;;;10.50;5.47;;;3.30;99.90;;;;;;5119655;27;20149;-73
2021/12/29 07:43:23;;;;;;;10.20;5.68;;;3.00;99.90;;;;;;5128002;27;20419;-73
2021/12/29 07:45:50;;;;;;;9.15;5.10;;;3.00;99.90;;;;;;5124234;27;20023;-73
2021/12/29 07:48:18;;;;;;;6.43;3.88;;;3.20;99.90;;;;;;5117274;27;20029;-73
2021/12/29 07:50:44;;;;;;;7.47;4.45;;;3.40;99.90;;;;;;5128201;27;20028;-73
2021/12/29 07:53:10;;;;;;;7.18;4.15;;;3.40;99.90;;;;;;5128620;27;20525;-73
2021/12/29 07:55:35;;;;;;;9.73;5.25;;;3.40;99.90;;;;;;5128683;27;20027;-73
2021/12/29 07:58:01;;;;;;;8.88;4.78;;;3.30;99.90;;;;;;5128691;27;20031;-73
2021/12/29 08:00:27;;;;;;;7.88;5.25;;;3.30;99.90;;;;;;5127937;27;20022;-73
2021/12/29 08:02:54;;;;;;;10.90;5.20;;;3.20;99.90;;;;;;5127664;27;20031;-73
2021/12/29 08:05:20;;;;;;;9.10;5.22;;;3.00;99.90;;;;;;5107871;27;20039;-73
2021/12/29 08:07:47;;;;;;;8.60;5.10;;;3.00;99.90;;;;;;5124979;27;20023;-74
2021/12/29 08:10:13;;;;;;;9.05;5.25;;;3.10;99.90;;;;;;5127657;27;20043;-74
2021/12/29 08:12:39;;;;;;;9.30;5.60;;;3.10;99.90;;;;;;5128018;27;20517;-74
2021/12/29 08:15:05;;;;;;;9.95;5.38;;;3.10;99.90;;;;;;5128326;27;20061;-74
2021/12/29 08:17:32;;;;;;;10.05;5.53;;;3.10;99.90;;;;;;5127792;27;20029;-74
2021/12/29 08:20:03;;;;;;;8.82;4.95;;;3.10;99.90;;;;;;5119163;27;20847;-74
2021/12/29 08:22:29;;;;;;;11.77;6.15;;;3.20;99.90;;;;;;5123948;27;20114;-74
2021/12/29 08:24:55;;;;;;;9.48;5.15;;;3.10;99.90;;;;;;5127995;28;20105;-75
2021/12/29 08:27:21;;;;;;;7.90;5.35;;;3.20;99.90;;;;;;5122732;27;20051;-74
2021/12/29 08:29:46;;;;;;;9.43;5.18;;;3.20;99.90;;;;;;5121957;28;20077;-75
2021/12/29 08:32:12;;;;;;;10.77;5.90;;;3.20;99.90;;;;;;5124493;28;20076;-74
2021/12/29 08:34:40;;;;;;;11.05;6.22;;;3.20;99.90;;;;;;5126091;28;20089;-75
2021/12/29 08:37:06;;;;;;;9.05;5.32;;;3.20;99.90;;;;;;5125461;28;20497;-74
2021/12/29 08:39:32;;;;;;;8.82;5.50;;;3.20;99.90;;;;;;5125319;28;20023;-74
2021/12/29 08:41:58;;;;;;;8.38;5.10;;;3.10;99.90;;;;;;5124997;28;20027;-75
2021/12/29 08:44:24;;;;;;;10.02;5.38;;;3.20;99.90;;;;;;5123309;28;20096;-74
2021/12/29 08:46:49;;;;;;;9.40;5.45;;;3.30;99.90;;;;;;5125059;28;20015;-74
2021/12/29 08:49:15;;;;;;;11.30;5.72;;;3.40;99.90;;;;;;5121096;28;20057;-74
2021/12/29 08:51:41;;;;;;;10.70;6.05;;;3.40;99.90;;;;;;5114433;28;20035;-74
2021/12/29 08:54:08;;;;;;;9.93;5.13;;;3.30;99.90;;;;;;5122014;28;20046;-75
2021/12/29 08:56:34;;;;;;;7.80;4.65;;;3.40;99.90;;;;;;5122153;28;20030;-75
2021/12/29 08:59:00;;;;;;;16.83;5.03;;;3.30;99.90;;;;;;5117696;28;20060;-75
2021/12/29 09:01:27;;;;;;;8.48;4.78;;;3.40;99.90;;;;;;5116146;28;20089;-75
2021/12/29 09:03:53;;;;;;;7.47;4.30;;;3.50;99.90;;;;;;5123535;28;20074;-75
2021/12/29 09:06:19;;;;;;;10.40;5.50;;;3.60;99.90;;;;;;5125002;28;20031;-75
2021/12/29 09:08:46;;;;;;;11.90;5.05;;;3.60;99.90;;;;;;5122957;28;20102;-74
2021/12/29 09:11:12;;;;;;;9.73;5.18;;;3.60;99.90;;;;;;5124602;28;20477;-74
2021/12/29 09:13:38;;;;;;;7.70;4.57;;;3.50;99.90;;;;;;5124532;28;20118;-74
2021/12/29 09:16:05;;;;;;;8.50;4.80;;;3.60;99.90;;;;;;5124747;28;20066;-74
2021/12/29 09:18:32;;;;;;;8.18;4.88;;;3.80;99.90;;;;;;5122172;28;20081;-74
2021/12/29 09:21:06;;;;;;;8.20;5.13;;;4.00;99.90;;;;;;5124260;28;20034;-74
2021/12/29 09:23:36;;;;;;;8.48;5.05;;;4.00;99.90;;;;;;5124727;28;20428;-74
2021/12/29 09:26:02;;;;;;;9.38;4.50;;;3.90;99.90;;;;;;5114338;28;20035;-74
2021/12/29 09:28:28;;;;;;;9.82;4.93;;;3.90;99.90;;;;;;5114709;28;20088;-74
2021/12/29 09:30:55;;;;;;;9.77;4.93;;;3.70;99.90;;;;;;5122874;28;20039;-74
2021/12/29 09:33:21;;;;;;;9.32;4.75;;;3.70;99.90;;;;;;5123414;28;20027;-74
2021/12/29 09:35:51;;;;;;;8.13;4.22;;;3.60;99.90;;;;;;5121011;28;20064;-74
2021/12/29 09:38:18;;;;;;;7.80;4.53;;;3.90;99.90;;;;;;5124271;27;20068;-74
2021/12/29 09:40:46;;;;;;;9.65;4.20;;;4.00;99.90;;;;;;5128459;27;20023;-75
2021/12/29 09:43:12;;;;;;;8.48;4.07;;;3.90;99.90;;;;;;5127943;27;20084;-75
2021/12/29 09:45:40;;;;;;;10.27;4.32;;;3.90;99.90;;;;;;5126779;27;20034;-74
2021/12/29 09:48:06;;;;;;;7.65;4.43;;;4.10;99.90;;;;;;5128285;27;20110;-74
2021/12/29 09:50:32;;;;;;;8.10;4.60;;;4.10;99.90;;;;;;5126428;27;20106;-74
2021/12/29 09:52:58;;;;;;;6.70;4.05;;;4.20;99.90;;;;;;5126565;27;20027;-74
2021/12/29 09:55:26;;;;;;;6.63;3.72;;;4.30;99.90;;;;;;5126370;27;20879;-74
2021/12/29 09:57:55;;;;;;;6.10;4.05;;;4.40;99.90;;;;;;5125342;27;20030;-74
2021/12/29 10:00:39;;;;;;;7.65;4.63;;;4.60;99.90;;;;;;5127476;27;20048;-74
2021/12/29 10:03:08;;;;;;;6.82;3.65;;;4.80;99.90;;;;;;5127934;27;20106;-74
2021/12/29 10:05:35;;;;;;;6.32;3.92;;;5.00;99.90;;;;;;5126179;27;20511;-74
2021/12/29 10:08:07;;;;;;;6.88;4.35;;;5.20;99.90;;;;;;5126416;27;20102;-74
2021/12/29 10:10:34;;;;;;;9.20;4.55;;;5.30;99.90;;;;;;5124932;27;20047;-75
2021/12/29 10:13:01;;;;;;;6.68;3.78;;;5.50;99.90;;;;;;5126380;27;20023;-74
2021/12/29 10:15:45;;;;;;;8.63;4.18;;;5.50;99.90;;;;;;5126779;27;20051;-75
2021/12/29 10:18:17;;;;;;;8.63;4.97;;;5.50;99.90;;;;;;5121736;27;20019;-74
2021/12/29 10:20:54;;;;;;;6.60;4.32;;;5.50;99.90;;;;;;5126463;27;20033;-74
2021/12/29 10:23:35;;;;;;;7.72;3.75;;;5.60;99.90;;;;;;5118444;27;20042;-74
2021/12/29 10:26:14;;;;;;;6.88;4.90;;;5.70;99.90;;;;;;5120563;27;20029;-74
2021/12/29 10:28:49;;;;;;;9.90;4.32;;;5.70;99.90;;;;;;5123384;27;20038;-74
2021/12/29 10:31:21;;;;;;;7.32;4.60;;;5.90;99.90;;;;;;5121577;27;20273;-74
2021/12/29 10:33:55;;;;;;;7.78;4.60;;;6.00;99.90;;;;;;5119835;27;20035;-74
2021/12/29 10:36:24;;;;;;;6.57;3.97;;;6.10;99.90;;;;;;5126643;27;20040;-74
2021/12/29 10:39:25;;;;;;;6.60;3.63;;;6.10;99.90;;;;;;5108326;27;20027;-74
2021/12/29 10:45:50;;;;;;;8.32;4.95;;;6.20;99.90;;;;;;5126747;27;20050;-74
2021/12/29 10:48:38;;;;;;;6.97;4.07;;;6.30;99.90;;;;;;5126569;27;20026;-74
2021/12/29 10:51:29;;;;;;;8.27;4.25;;;6.50;99.50;;;;;;5125943;27;20123;-74
2021/12/29 10:54:24;;;;;;;8.93;3.97;;;6.60;98.60;;;;;;5126344;27;20039;-74
2021/12/29 10:57:22;;;;;;;6.90;4.00;;;6.70;99.20;;;;;;5126570;27;20086;-74
2021/12/29 11:00:02;;;;;;;6.50;3.50;;;6.80;99.00;;;;;;5126559;27;20052;-74
2021/12/29 11:02:45;;;;;;;6.88;4.47;;;6.90;98.40;;;;;;5125843;27;20130;-74
2021/12/29 11:05:28;;;;;;;11.65;6.38;;;7.00;98.40;;;;;;5126374;27;20034;-74
2021/12/29 11:08:16;;;;;;;9.88;6.15;;;6.80;99.60;;;;;;5126592;27;20058;-73
2021/12/29 11:10:56;;;;;;;11.38;5.72;;;6.70;99.90;;;;;;5128639;27;20043;-74
2021/12/29 11:13:46;;;;;;;9.15;5.95;;;6.60;99.90;;;;;;5106703;28;20024;-73
2021/12/29 11:16:21;;;;;;;7.57;5.65;;;6.70;99.90;;;;;;5131109;27;20376;-74
2021/12/29 11:19:06;;;;;;;8.75;5.45;;;6.80;99.90;;;;;;5124992;27;20042;-74
2021/12/29 11:21:52;;;;;;;9.85;4.97;;;6.80;99.40;;;;;;5130247;27;20529;-74
2021/12/29 11:24:35;;;;;;;8.02;5.63;;;7.00;99.30;;;;;;5132360;27;20112;-74
2021/12/29 11:27:26;;;;;;;12.98;5.50;;;7.20;99.20;;;;;;5125980;27;20027;-74
2021/12/29 11:30:15;;;;;;;10.15;6.25;;;7.40;99.00;;;;;;5125307;27;20027;-74
2021/12/29 11:32:46;;;;;;;13.02;5.88;;;7.60;98.60;;;;;;5119692;27;20553;-74
2021/12/29 11:35:21;;;;;;;10.25;5.55;;;7.60;98.60;;;;;;5114604;27;20027;-74
2021/12/29 11:37:53;;;;;;;12.43;5.55;;;7.70;98.40;;;;;;5104841;28;20022;-74
2021/12/29 11:40:26;;;;;;;12.13;5.97;;;7.50;99.10;;;;;;5108446;27;20027;-74
2021/12/29 11:42:54;;;;;;;12.48;6.45;;;7.40;99.00;;;;;;5097363;27;20039;-74
2021/12/29 11:45:21;;;;;;;11.73;6.85;;;7.40;99.10;;;;;;5112366;27;20064;-74
2021/12/29 11:47:48;;;;;;;11.10;5.70;;;7.40;99.20;;;;;;5115610;27;20023;-73
2021/12/29 11:50:21;;;;;;;10.90;6.18;;;7.30;99.10;;;;;;5093603;27;20637;-73
2021/12/29 11:52:50;;;;;;;10.20;6.05;;;7.30;98.90;;;;;;5114932;27;20027;-74
2021/12/29 11:55:20;;;;;;;7.45;4.75;;;7.30;99.00;;;;;;5116640;27;20106;-73
2021/12/29 11:57:47;;;;;;;13.25;5.45;;;7.30;98.50;;;;;;5116252;27;20547;-73
2021/12/29 12:00:19;;;;;;;9.50;5.47;;;7.20;98.20;;;;;;5112076;27;20107;-73
2021/12/29 12:03:04;;;;;;;11.70;6.05;;;7.30;98.40;;;;;;5112900;27;20118;-73
2021/12/29 12:05:36;;;;;;;7.38;4.43;;;7.40;98.40;;;;;;5116811;27;20031;-73
2021/12/29 12:08:13;;;;;;;9.20;4.80;;;7.50;98.40;;;;;;5104464;28;20031;-73
2021/12/29 12:10:41;;;;;;;10.95;5.53;;;7.60;98.50;;;;;;5114867;27;20458;-73
2021/12/29 12:13:28;;;;;;;10.82;4.80;;;7.70;98.70;;;;;;5115846;27;20027;-73
2021/12/29 12:16:09;;;;;;;8.88;5.28;;;7.70;98.60;;;;;;5116616;27;20038;-73
2021/12/29 12:18:57;;;;;;;7.40;4.78;;;7.70;98.50;;;;;;5114875;27;20027;-73
2021/12/29 12:21:34;;;;;;;7.60;3.85;;;7.70;98.60;;;;;;5114874;27;20061;-73
2021/12/29 12:24:25;;;;;;;8.95;5.47;;;7.70;97.20;;;;;;5114952;27;20035;-73
2021/12/29 12:27:01;;;;;;;9.23;4.90;;;7.70;98.00;;;;;;5115608;28;20027;-73
2021/12/29 12:29:32;;;;;;;9.15;4.30;;;7.70;97.70;;;;;;5115465;28;20025;-73
2021/12/29 12:32:07;;;;;;;8.93;5.25;;;7.70;98.20;;;;;;5120593;28;20102;-73
2021/12/29 12:34:45;;;;;;;9.50;5.07;;;7.70;98.00;;;;;;5119486;28;20036;-73
2021/12/29 12:37:28;;;;;;;6.85;4.80;;;7.70;97.90;;;;;;5114584;28;20756;-73
2021/12/29 12:40:20;;;;;;;8.13;5.03;;;7.70;98.30;;;;;;5122076;28;20038;-73
2021/12/29 12:43:11;;;;;;;9.77;5.65;;;7.60;98.60;;;;;;5114308;28;20046;-73
2021/12/29 12:45:40;;;;;;;9.82;5.32;;;7.60;98.80;;;;;;5113480;28;20019;-73
2021/12/29 12:48:08;;;;;;;48.10;23.95;;;7.60;98.20;;;;;;5108334;28;20023;-73
2021/12/29 12:50:36;;;;;;;17.38;8.88;;;7.80;98.60;;;;;;5115476;28;20023;-73
2021/12/29 12:53:03;;;;;;;12.10;6.43;;;7.80;98.20;;;;;;5114851;28;20031;-73
2021/12/29 12:55:40;;;;;;;13.32;6.65;;;7.70;98.50;;;;;;5122580;28;20059;-73
2021/12/29 12:58:09;;;;;;;12.90;6.93;;;7.70;98.70;;;;;;5116750;28;20245;-73
2021/12/29 13:00:40;;;;;;;11.55;6.03;;;7.60;98.40;;;;;;5121397;28;20519;-73
2021/12/29 13:03:08;;;;;;;13.30;5.18;;;7.60;98.40;;;;;;5118966;28;20046;-73
2021/12/29 13:05:39;;;;;;;9.70;5.50;;;7.60;98.40;;;;;;5121924;28;20492;-73
2021/12/29 13:08:06;;;;;;;8.20;5.30;;;7.60;98.20;;;;;;5114449;28;20104;-73
2021/12/29 13:10:43;;;;;;;12.40;6.13;;;7.60;98.20;;;;;;5120046;28;20105;-73
2021/12/29 13:13:14;;;;;;;12.05;6.38;;;7.60;98.30;;;;;;5125051;27;20066;-73